Time;durP1;ratioP1;P1;durP2;ratioP2;P2;SDS_P1;SDS_P2;PMS_P1;PMS_P2;Temp;Humidity;BMP_temperature;BMP_pressure;BME280_temperature;BME280_humidity;BME280_pressure;Samples;Min_cycle;Max_cycle;Signal;HPM_P1;HPM_P2
2023/11/01 00:01:09;;;;;;;9.95;3.15;;;;;;;19.74;95.77;100315.22;5100026;28;20063;-41
2023/11/01 00:03:35;;;;;;;6.25;3.55;;;;;;;19.73;95.93;100308.09;5084974;28;20503;-41
2023/11/01 00:06:00;;;;;;;5.63;2.88;;;;;;;19.70;96.20;100298.50;5093592;28;20024;-41
2023/11/01 00:08:25;;;;;;;6.13;3.25;;;;;;;19.69;96.27;100296.06;5092963;28;20027;-41
2023/11/01 00:10:51;;;;;;;4.63;2.78;;;;;;;19.69;96.51;100287.81;5096420;28;20391;-41
2023/11/01 00:13:16;;;;;;;8.00;2.90;;;;;;;19.65;96.67;100284.84;5090662;28;20031;-40
2023/11/01 00:15:41;;;;;;;4.15;2.83;;;;;;;19.66;96.53;100286.47;5078978;28;20035;-40
2023/11/01 00:18:07;;;;;;;4.18;2.60;;;;;;;19.65;96.63;100276.59;5094133;27;20143;-41
2023/11/01 00:20:32;;;;;;;6.53;2.85;;;;;;;19.66;97.16;100282.94;5090292;28;20034;-41
2023/11/01 00:22:58;;;;;;;6.13;2.90;;;;;;;19.63;96.68;100270.59;5092531;28;20039;-39
2023/11/01 00:25:24;;;;;;;5.63;2.60;;;;;;;19.62;96.96;100266.22;5092727;28;20076;-40
2023/11/01 00:27:50;;;;;;;5.53;2.65;;;;;;;19.63;97.02;100269.78;5092322;28;20887;-40
2023/11/01 00:30:15;;;;;;;5.93;2.78;;;;;;;19.61;97.39;100264.59;5094786;28;20316;-40
2023/11/01 00:32:40;;;;;;;4.88;2.30;;;;;;;19.61;97.01;100263.75;5073624;28;20379;-40
2023/11/01 00:35:07;;;;;;;6.45;2.40;;;;;;;19.59;97.20;100269.56;5089239;28;20028;-40
2023/11/01 00:37:32;;;;;;;4.05;2.50;;;;;;;19.58;97.22;100275.38;5094643;28;20164;-40
2023/11/01 00:39:57;;;;;;;5.03;2.88;;;;;;;19.59;97.53;100266.81;5097650;28;20531;-41
2023/11/01 00:42:23;;;;;;;7.88;2.38;;;;;;;19.59;97.48;100275.06;5092749;28;20058;-40
2023/11/01 00:44:48;;;;;;;6.05;2.15;;;;;;;19.58;97.79;100269.88;5096055;28;20024;-40
2023/11/01 00:47:14;;;;;;;9.25;2.22;;;;;;;19.56;97.52;100270.97;5095507;28;20024;-40
2023/11/01 00:49:40;;;;;;;5.25;2.03;;;;;;;19.56;97.96;100270.19;5097246;28;20611;-40
2023/11/01 00:52:05;;;;;;;4.05;2.42;;;;;;;19.55;98.18;100265.78;5090125;28;20055;-41
2023/11/01 00:54:30;;;;;;;4.28;2.13;;;;;;;19.54;97.89;100262.22;5087812;28;20507;-41
2023/11/01 00:56:56;;;;;;;5.57;2.80;;;;;;;19.51;97.80;100257.34;5096122;28;20054;-41
2023/11/01 00:59:21;;;;;;;6.78;2.17;;;;;;;19.52;98.28;100258.97;5098452;28;20103;-42
2023/11/01 01:01:47;;;;;;;3.17;1.90;;;;;;;19.51;97.96;100253.75;5095744;28;20034;-41
2023/11/01 01:04:12;;;;;;;6.13;2.30;;;;;;;19.51;98.32;100251.84;5096544;28;20023;-40
2023/11/01 01:06:37;;;;;;;4.07;1.98;;;;;;;19.49;98.58;100248.56;5096795;28;20449;-41
2023/11/01 01:09:03;;;;;;;4.32;2.38;;;;;;;19.49;98.43;100248.56;5092165;28;20884;-41
2023/11/01 01:11:28;;;;;;;5.20;2.30;;;;;;;19.49;98.55;100239.50;5085608;28;20016;-41
2023/11/01 01:13:53;;;;;;;5.50;2.00;;;;;;;19.48;98.45;100238.69;5098643;28;20989;-41
2023/11/01 01:16:19;;;;;;;3.28;1.83;;;;;;;19.47;98.35;100225.25;5091069;28;20381;-40
2023/11/01 01:18:44;;;;;;;6.65;2.20;;;;;;;19.46;98.45;100226.38;5098061;28;20027;-40
2023/11/01 01:21:09;;;;;;;4.95;1.85;;;;;;;19.46;98.55;100220.88;5103118;28;20551;-40
2023/11/01 01:23:35;;;;;;;6.68;2.20;;;;;;;19.44;98.86;100215.69;5111376;28;20494;-41
2023/11/01 01:26:00;;;;;;;6.40;2.22;;;;;;;19.44;98.58;100220.38;5106972;28;20024;-40
2023/11/01 01:28:26;;;;;;;4.07;1.88;;;;;;;19.43;98.56;100210.50;5111765;27;20028;-40
2023/11/01 01:30:51;;;;;;;4.32;2.10;;;;;;;19.43;99.01;100210.50;5105986;28;20032;-40
2023/11/01 01:33:17;;;;;;;6.57;2.30;;;;;;;19.42;98.83;100208.84;5099461;28;20067;-40
2023/11/01 01:35:42;;;;;;;4.65;2.05;;;;;;;19.41;98.95;100210.78;5108268;28;20467;-40
2023/11/01 01:38:08;;;;;;;4.40;2.20;;;;;;;19.39;98.80;100202.84;5101571;28;20112;-40
2023/11/01 01:40:34;;;;;;;5.63;2.40;;;;;;;19.39;98.80;100204.78;5078422;28;20054;-40
2023/11/01 01:43:09;;;;;;;4.57;1.98;;;;;;;19.38;98.86;100200.41;5101902;28;20365;-40
2023/11/01 01:45:35;;;;;;;7.80;1.98;;;;;;;19.38;99.29;100194.91;5101951;28;20116;-41
2023/11/01 01:48:00;;;;;;;4.95;2.20;;;;;;;19.37;99.04;100190.53;5102515;28;20523;-42
2023/11/01 01:50:25;;;;;;;4.75;2.05;;;;;;;19.37;99.34;100183.13;5104420;28;20452;-41
2023/11/01 01:52:51;;;;;;;6.85;2.25;;;;;;;19.35;99.32;100179.84;5101102;28;20081;-41
2023/11/01 01:55:17;;;;;;;4.03;2.25;;;;;;;19.34;99.57;100171.91;5106240;28;20032;-41
2023/11/01 01:57:42;;;;;;;5.88;2.30;;;;;;;19.34;99.33;100166.41;5106407;28;20081;-41
2023/11/01 02:00:08;;;;;;;3.20;1.83;;;;;;;19.34;99.53;100160.91;5104516;28;20015;-41
2023/11/01 02:02:34;;;;;;;6.93;2.50;;;;;;;19.33;99.27;100154.59;5105979;28;20056;-41
2023/11/01 02:04:59;;;;;;;6.85;2.17;;;;;;;19.32;99.31;100149.41;5106632;28;20027;-41
2023/11/01 02:07:25;;;;;;;4.45;2.05;;;;;;;19.32;99.63;100152.94;5074021;28;20080;-41
2023/11/01 02:09:51;;;;;;;6.82;2.00;;;;;;;19.32;99.66;100149.41;5100547;28;20027;-41
2023/11/01 02:12:17;;;;;;;6.20;2.28;;;;;;;19.32;99.42;100143.91;5109248;28;20028;-41
2023/11/01 02:14:42;;;;;;;5.28;2.40;;;;;;;19.31;99.73;100148.59;5105466;27;20433;-41
2023/11/01 02:17:08;;;;;;;5.35;2.28;;;;;;;19.31;99.80;100153.25;5090136;28;20027;-41
2023/11/01 02:19:33;;;;;;;6.10;2.20;;;;;;;19.29;99.56;100137.09;5097980;27;20527;-41
2023/11/01 02:21:59;;;;;;;4.75;1.98;;;;;;;19.30;99.57;100140.63;5094573;28;20023;-41
2023/11/01 02:24:24;;;;;;;3.78;2.05;;;;;;;19.30;99.89;100138.72;5095214;28;20028;-41
2023/11/01 02:26:49;;;;;;;4.47;1.98;;;;;;;19.29;99.85;100134.34;5090344;28;20238;-42
2023/11/01 02:29:15;;;;;;;6.90;2.35;;;;;;;19.27;99.70;100117.34;5110427;27;20027;-41
2023/11/01 02:31:41;;;;;;;6.53;2.17;;;;;;;19.27;99.89;100116.53;5101582;28;20027;-40
2023/11/01 02:34:08;;;;;;;6.68;2.10;;;;;;;19.28;99.90;100116.22;5098626;28;20090;-40
2023/11/01 02:36:35;;;;;;;4.22;1.98;;;;;;;19.27;99.62;100108.28;5102732;28;20023;-41
2023/11/01 02:39:00;;;;;;;4.80;1.98;;;;;;;19.26;99.88;100106.66;5106123;28;20023;-41
2023/11/01 02:41:26;;;;;;;4.85;2.10;;;;;;;19.25;99.80;100105.81;5108265;28;20070;-41
2023/11/01 02:43:51;;;;;;;5.43;1.90;;;;;;;19.26;100.00;100103.91;5107784;28;20019;-41
2023/11/01 02:46:17;;;;;;;8.10;2.30;;;;;;;19.24;100.00;100101.47;5077460;28;20039;-42
2023/11/01 02:48:42;;;;;;;3.85;1.98;;;;;;;19.24;99.92;100098.72;5095715;27;20041;-41
2023/11/01 02:51:07;;;;;;;4.32;1.70;;;;;;;19.24;100.00;100098.72;5105672;28;20175;-41
2023/11/01 02:53:33;;;;;;;4.47;2.10;;;;;;;19.22;100.00;100101.75;5110997;27;20028;-41
2023/11/01 02:55:58;;;;;;;4.40;2.10;;;;;;;19.22;99.93;100095.47;5109322;28;20029;-41
2023/11/01 02:58:24;;;;;;;3.72;1.80;;;;;;;19.21;100.00;100091.06;5103138;27;20571;-41
2023/11/01 03:00:50;;;;;;;5.72;2.05;;;;;;;19.22;100.00;100095.47;5100104;28;20031;-41
2023/11/01 03:03:15;;;;;;;3.97;2.10;;;;;;;19.20;100.00;100090.28;5102924;28;20368;-41
2023/11/01 03:05:41;;;;;;;3.25;1.83;;;;;;;19.20;100.00;100087.53;5108374;28;20049;-41
2023/11/01 03:08:06;;;;;;;3.38;1.88;;;;;;;19.19;100.00;100087.81;5105202;28;20110;-41
2023/11/01 03:10:31;;;;;;;4.07;2.08;;;;;;;19.19;100.00;100085.91;5099940;28;20066;-41
2023/11/01 03:12:57;;;;;;;3.95;1.98;;;;;;;19.19;100.00;100087.81;5103509;28;20042;-41
2023/11/01 03:15:23;;;;;;;4.93;1.75;;;;;;;19.18;100.00;100080.72;5104861;27;20063;-41
2023/11/01 03:17:48;;;;;;;2.67;1.90;;;;;;;19.17;100.00;100076.34;5106275;28;20034;-41
2023/11/01 03:20:13;;;;;;;5.88;2.10;;;;;;;19.17;100.00;100074.38;5095739;28;20077;-41
2023/11/01 03:22:39;;;;;;;3.92;1.90;;;;;;;19.17;100.00;100077.13;5104493;28;20110;-42
2023/11/01 03:25:05;;;;;;;4.55;2.10;;;;;;;19.17;100.00;100076.34;5095674;28;20031;-41
2023/11/01 03:27:30;;;;;;;3.92;2.08;;;;;;;19.15;100.00;100060.13;5107916;28;20027;-41
2023/11/01 03:29:58;;;;;;;3.40;1.80;;;;;;;19.16;100.00;100059.03;5095311;27;20026;-41
2023/11/01 03:32:23;;;;;;;5.35;1.90;;;;;;;19.15;100.00;100059.34;5106111;28;20514;-41
2023/11/01 03:34:49;;;;;;;3.60;2.00;;;;;;;19.14;100.00;100058.53;5098425;28;20035;-41
2023/11/01 03:37:14;;;;;;;3.03;1.90;;;;;;;19.13;100.00;100054.16;5103480;28;20356;-41
2023/11/01 03:39:40;;;;;;;3.33;1.92;;;;;;;19.12;100.00;100048.97;5105684;28;20032;-41
2023/11/01 03:42:05;;;;;;;3.08;2.00;;;;;;;19.13;100.00;100045.06;5080362;28;20028;-40
2023/11/01 03:44:34;;;;;;;3.90;2.60;;;;;;;19.12;100.00;100037.97;5092921;28;20015;-40
2023/11/01 03:47:00;;;;;;;3.28;2.08;;;;;;;19.12;100.00;100040.72;5108209;28;20479;-41
2023/11/01 03:49:29;;;;;;;3.72;2.10;;;;;;;19.11;100.00;100045.38;5111214;27;20425;-40
2023/11/01 03:51:57;;;;;;;3.97;1.85;;;;;;;19.12;100.00;100046.22;5104891;28;20605;-41
2023/11/01 03:54:23;;;;;;;3.67;1.67;;;;;;;19.11;100.00;100036.34;5098471;28;20452;-41
2023/11/01 03:56:48;;;;;;;4.50;1.92;;;;;;;19.11;100.00;100031.66;5072197;28;20067;-41
2023/11/01 03:59:14;;;;;;;2.85;1.77;;;;;;;19.10;100.00;100043.75;5087391;28;20460;-39
2023/11/01 04:01:39;;;;;;;3.78;1.98;;;;;;;19.10;100.00;100030.03;5099903;28;20023;-41
2023/11/01 04:04:05;;;;;;;4.55;2.30;;;;;;;19.09;100.00;100033.88;5095482;28;20491;-40
2023/11/01 04:06:31;;;;;;;3.95;1.98;;;;;;;19.09;100.00;100028.38;5096527;28;20032;-40
2023/11/01 04:08:56;;;;;;;6.57;1.95;;;;;;;19.08;100.00;100024.84;5105925;28;20024;-40
2023/11/01 04:11:22;;;;;;;2.78;1.85;;;;;;;19.08;100.00;100024.84;5104789;28;20407;-40
2023/11/01 04:13:48;;;;;;;4.93;2.28;;;;;;;19.08;100.00;100032.28;5106388;28;20035;-40
2023/11/01 04:16:13;;;;;;;4.68;2.20;;;;;;;19.07;100.00;100023.22;5103288;28;20083;-41
2023/11/01 04:18:38;;;;;;;3.60;1.80;;;;;;;19.07;100.00;100016.91;5098368;28;20037;-41
2023/11/01 04:21:04;;;;;;;2.78;1.65;;;;;;;19.07;100.00;100014.97;5096952;28;20568;-40
2023/11/01 04:23:30;;;;;;;3.85;2.00;;;;;;;19.06;100.00;100012.53;5103426;28;20019;-40
2023/11/01 04:25:56;;;;;;;2.72;1.80;;;;;;;19.05;100.00;100011.69;5080475;28;20030;-40
2023/11/01 04:28:21;;;;;;;3.15;2.10;;;;;;;19.05;100.00;100005.41;5094072;28;20027;-40
2023/11/01 04:30:47;;;;;;;2.28;1.60;;;;;;;19.04;100.00;100010.09;5098781;28;20031;-41
2023/11/01 04:33:12;;;;;;;2.00;1.45;;;;;;;19.04;100.00;100010.09;5102440;28;20059;-41
2023/11/01 04:35:38;;;;;;;6.28;1.67;;;;;;;19.03;100.00;99999.41;5099914;28;20058;-41
2023/11/01 04:38:03;;;;;;;3.40;1.95;;;;;;;19.05;100.00;100005.41;5104102;28;20726;-41
2023/11/01 04:40:29;;;;;;;4.72;1.95;;;;;;;19.03;100.00;100008.47;5101725;28;20034;-41
2023/11/01 04:42:55;;;;;;;3.10;1.92;;;;;;;19.04;100.00;100007.34;5086723;28;20016;-41
2023/11/01 04:45:21;;;;;;;2.30;1.80;;;;;;;19.04;100.00;100004.59;5108616;28;20110;-41
2023/11/01 04:47:46;;;;;;;2.38;1.50;;;;;;;19.03;100.00;100004.88;5087864;28;20027;-42
2023/11/01 04:50:13;;;;;;;2.83;1.80;;;;;;;19.02;100.00;100000.53;5109305;28;20115;-41
2023/11/01 04:52:40;;;;;;;2.05;1.55;;;;;;;19.02;100.00;99995.84;5096314;28;20078;-41
2023/11/01 04:55:06;;;;;;;1.55;1.40;;;;;;;19.02;100.00;99993.09;5103379;28;20070;-41
2023/11/01 04:57:32;;;;;;;2.35;1.40;;;;;;;19.02;100.00;99992.31;5098904;28;20043;-42
2023/11/01 04:59:57;;;;;;;2.42;1.60;;;;;;;19.02;100.00;99989.56;5098919;28;20020;-41
2023/11/01 05:02:23;;;;;;;3.28;1.55;;;;;;;19.01;100.00;99988.72;5091213;28;20028;-42
2023/11/01 05:04:48;;;;;;;2.05;1.50;;;;;;;19.01;100.00;99980.50;5101808;28;20107;-41
2023/11/01 05:07:14;;;;;;;2.40;1.77;;;;;;;19.01;100.00;99982.44;5109307;28;20027;-41
2023/11/01 05:09:39;;;;;;;2.63;1.75;;;;;;;19.01;100.00;99977.75;5100428;27;20034;-41
2023/11/01 05:12:05;;;;;;;2.20;1.45;;;;;;;19.01;100.00;99971.44;5110473;27;20051;-41
2023/11/01 05:14:30;;;;;;;1.98;1.65;;;;;;;19.01;100.00;99977.75;5111051;27;20467;-41
2023/11/01 05:16:56;;;;;;;2.63;1.70;;;;;;;19.01;100.00;99979.69;5105421;28;20571;-41
2023/11/01 05:19:22;;;;;;;2.28;1.60;;;;;;;19.00;100.00;99969.81;5093218;28;20031;-41
2023/11/01 05:21:47;;;;;;;3.95;1.50;;;;;;;19.00;100.00;99973.38;5100958;28;20310;-41
2023/11/01 05:24:12;;;;;;;2.42;1.50;;;;;;;19.01;100.00;99963.22;5101704;28;20048;-41
2023/11/01 05:26:38;;;;;;;3.38;1.60;;;;;;;19.00;100.00;99967.88;5104329;28;20139;-41
2023/11/01 05:29:04;;;;;;;1.80;1.45;;;;;;;18.99;100.00;99963.50;5094195;27;20102;-41
2023/11/01 05:31:30;;;;;;;2.15;1.58;;;;;;;18.99;100.00;99958.00;5092458;28;20027;-41
2023/11/01 05:33:57;;;;;;;4.50;1.90;;;;;;;18.99;100.00;99963.50;5088124;28;20479;-41
2023/11/01 05:36:22;;;;;;;3.42;1.58;;;;;;;18.98;100.00;99964.63;5102443;28;20024;-41
2023/11/01 05:38:47;;;;;;;3.05;1.83;;;;;;;18.98;100.00;99958.31;5105752;28;20032;-41
2023/11/01 05:41:13;;;;;;;5.60;1.90;;;;;;;18.97;100.00;99954.75;5090960;28;20054;-41
2023/11/01 05:43:39;;;;;;;5.18;2.03;;;;;;;18.97;100.00;99952.03;5102366;28;20081;-41
2023/11/01 05:46:05;;;;;;;3.15;1.70;;;;;;;18.96;100.00;99953.13;5089004;28;20030;-41
2023/11/01 05:48:31;;;;;;;2.78;1.75;;;;;;;18.96;100.00;99950.38;5109697;28;20028;-42
2023/11/01 05:50:58;;;;;;;7.20;1.80;;;;;;;18.96;100.00;99949.56;5105575;27;20112;-39
2023/11/01 05:53:24;;;;;;;4.47;1.88;;;;;;;18.94;100.00;99944.38;5108795;28;20042;-40
2023/11/01 05:55:49;;;;;;;4.47;1.75;;;;;;;18.94;100.00;99940.81;5105253;28;20786;-41
2023/11/01 05:58:14;;;;;;;2.83;1.73;;;;;;;18.94;100.00;99958.09;5099640;28;20035;-40
2023/11/01 06:00:40;;;;;;;3.88;2.00;;;;;;;18.94;100.00;99947.13;5099331;28;20032;-40
2023/11/01 06:03:06;;;;;;;2.97;1.60;;;;;;;18.92;100.00;99939.19;5100545;28;20504;-41
2023/11/01 06:05:35;;;;;;;3.90;1.67;;;;;;;18.93;100.00;99940.00;5113704;27;20467;-40
2023/11/01 06:08:01;;;;;;;4.60;2.10;;;;;;;18.93;100.00;99945.50;5107635;28;20081;-41
2023/11/01 06:10:26;;;;;;;2.00;1.60;;;;;;;18.91;100.00;99945.81;5101737;28;20030;-41
2023/11/01 06:12:51;;;;;;;3.40;1.70;;;;;;;18.94;100.00;99943.56;5106365;28;20403;-41
2023/11/01 06:15:17;;;;;;;3.78;1.60;;;;;;;18.98;100.00;99947.31;5105996;28;20130;-41
2023/11/01 06:17:42;;;;;;;5.60;1.90;;;;;;;19.04;100.00;99946.09;5102416;28;20520;-39
2023/11/01 06:20:08;;;;;;;4.32;1.92;;;;;;;19.11;100.00;99948.47;5106555;28;20403;-40
2023/11/01 06:22:33;;;;;;;4.75;1.80;;;;;;;19.19;100.00;99945.81;5085499;28;20039;-41
2023/11/01 06:25:00;;;;;;;1.67;1.38;;;;;;;19.28;100.00;99945.91;5102246;28;20027;-41
2023/11/01 06:27:25;;;;;;;3.53;1.85;;;;;;;19.38;100.00;99940.16;5099732;28;20470;-40
2023/11/01 06:29:52;;;;;;;5.28;1.83;;;;;;;19.51;100.00;99934.94;5108568;28;20023;-40
2023/11/01 06:32:17;;;;;;;5.47;1.80;;;;;;;19.65;100.00;99938.47;5108359;28;20384;-39
2023/11/01 06:34:43;;;;;;;6.40;1.70;;;;;;;19.78;100.00;99939.59;5105948;28;20066;-41
2023/11/01 06:37:08;;;;;;;3.28;1.60;;;;;;;19.90;100.00;99936.28;5104008;28;20062;-41
2023/11/01 06:39:33;;;;;;;4.30;2.20;;;;;;;20.04;99.78;99933.50;5099635;28;20058;-40
2023/11/01 06:41:59;;;;;;;5.03;1.90;;;;;;;20.16;99.55;99927.44;5099684;28;20099;-41
2023/11/01 06:44:25;;;;;;;6.03;1.83;;;;;;;20.28;99.03;99932.34;5105203;28;20024;-41
2023/11/01 06:46:51;;;;;;;2.83;1.70;;;;;;;20.40;98.41;99932.59;5109652;28;20023;-41
2023/11/01 06:49:16;;;;;;;4.07;2.00;;;;;;;20.50;98.02;99937.00;5106091;28;20109;-41
2023/11/01 06:51:42;;;;;;;3.05;1.70;;;;;;;20.61;97.61;99937.56;5116066;27;20031;-41
2023/11/01 06:54:07;;;;;;;4.75;2.03;;;;;;;20.71;97.07;99933.72;5105770;28;20034;-41
2023/11/01 06:56:33;;;;;;;3.38;1.70;;;;;;;20.78;96.87;99931.34;5094445;28;20043;-41
2023/11/01 06:58:58;;;;;;;5.93;1.90;;;;;;;20.82;96.49;99919.41;5095452;28;20028;-41
2023/11/01 07:01:24;;;;;;;5.18;1.65;;;;;;;20.85;96.58;99923.44;5102329;27;20379;-41
2023/11/01 07:03:50;;;;;;;5.13;1.92;;;;;;;20.86;96.45;99924.25;5103247;28;20034;-41
2023/11/01 07:06:15;;;;;;;2.90;1.80;;;;;;;20.86;96.30;99929.75;5097954;28;20027;-41
2023/11/01 07:08:42;;;;;;;3.53;1.85;;;;;;;20.84;96.39;99925.41;5106900;28;20077;-41
2023/11/01 07:11:11;;;;;;;4.30;1.80;;;;;;;20.82;96.88;99927.66;5099411;28;20474;-41
2023/11/01 07:13:37;;;;;;;4.38;1.83;;;;;;;20.80;96.88;99929.09;5105086;28;20161;-41
2023/11/01 07:16:04;;;;;;;4.53;2.00;;;;;;;20.78;96.97;99937.66;5069831;28;20055;-41
2023/11/01 07:18:29;;;;;;;5.75;1.95;;;;;;;20.78;96.81;99934.91;5085006;28;20023;-41
2023/11/01 07:20:54;;;;;;;3.78;1.70;;;;;;;20.76;96.72;99931.69;5100159;27;20031;-41
2023/11/01 07:23:20;;;;;;;3.97;1.95;;;;;;;20.74;96.50;99927.63;5085057;28;20450;-41
2023/11/01 07:25:45;;;;;;;3.90;2.03;;;;;;;20.74;96.57;99938.63;5098844;27;20408;-41
2023/11/01 07:28:11;;;;;;;6.45;2.08;;;;;;;20.71;96.82;99933.72;5096246;28;20023;-41
2023/11/01 07:30:36;;;;;;;4.10;1.88;;;;;;;20.67;97.15;99928.03;5099177;28;20023;-40
2023/11/01 07:33:02;;;;;;;5.55;2.00;;;;;;;20.65;97.15;99933.06;5090295;28;20024;-41
2023/11/01 07:35:27;;;;;;;3.72;1.67;;;;;;;20.62;97.18;99925.44;5101775;28;20095;-41
2023/11/01 07:37:52;;;;;;;5.28;2.10;;;;;;;20.58;97.21;99936.25;5089048;28;20065;-40
2023/11/01 07:40:18;;;;;;;3.92;1.80;;;;;;;20.55;97.17;99928.66;5098234;28;20020;-41
2023/11/01 07:42:45;;;;;;;7.07;2.05;;;;;;;20.52;97.77;99927.31;5100215;28;20023;-41
2023/11/01 07:45:11;;;;;;;4.30;1.85;;;;;;;20.49;97.62;99927.13;5100851;28;20053;-41
2023/11/01 07:47:38;;;;;;;4.60;1.95;;;;;;;20.46;97.60;99919.53;5101515;28;20370;-41
2023/11/01 07:50:04;;;;;;;5.97;2.00;;;;;;;20.43;98.18;99918.22;5109747;27;20028;-41
2023/11/01 07:52:30;;;;;;;3.90;1.65;;;;;;;20.40;98.10;99915.28;5105742;27;20031;-41
2023/11/01 07:54:55;;;;;;;4.63;1.90;;;;;;;20.38;97.99;99921.09;5107217;27;20039;-41
2023/11/01 07:57:21;;;;;;;9.25;2.03;;;;;;;20.34;98.22;99909.09;5103626;27;20102;-41
2023/11/01 07:59:46;;;;;;;6.68;2.45;;;;;;;20.31;98.35;99916.03;5104294;28;20387;-41
2023/11/01 08:02:11;;;;;;;6.95;2.10;;;;;;;20.28;98.55;99910.34;5103640;28;20035;-41
2023/11/01 08:04:37;;;;;;;6.53;2.28;;;;;;;20.25;99.07;99903.53;5094609;28;20415;-40
2023/11/01 08:07:02;;;;;;;7.05;2.10;;;;;;;20.24;99.30;99903.84;5091656;27;20110;-41
2023/11/01 08:09:28;;;;;;;8.38;2.20;;;;;;;20.19;99.39;99905.59;5107308;28;20098;-41
2023/11/01 08:11:53;;;;;;;4.38;1.80;;;;;;;20.17;99.46;99905.13;5105410;28;20106;-41
2023/11/01 08:14:19;;;;;;;5.63;1.98;;;;;;;20.15;99.43;99909.31;5098517;28;20016;-41
2023/11/01 08:16:47;;;;;;;6.50;2.20;;;;;;;20.15;99.44;99901.06;5107666;27;20529;-40
2023/11/01 08:19:16;;;;;;;5.82;2.35;;;;;;;20.12;99.63;99894.25;5102347;28;20487;-40
2023/11/01 08:21:42;;;;;;;5.03;2.00;;;;;;;20.10;100.00;99901.16;5101491;28;20020;-41
2023/11/01 08:24:07;;;;;;;7.30;2.08;;;;;;;20.08;99.88;99898.72;5100048;28;20027;-41
2023/11/01 08:26:33;;;;;;;4.97;1.95;;;;;;;20.06;100.00;99887.25;5101042;28;20031;-40
2023/11/01 08:28:58;;;;;;;6.35;2.38;;;;;;;20.04;100.00;99889.50;5061739;28;20473;-41
2023/11/01 08:31:24;;;;;;;6.05;2.25;;;;;;;20.03;100.00;99879.63;5097875;28;20271;-40
2023/11/01 08:33:49;;;;;;;8.13;2.60;;;;;;;20.00;100.00;99886.56;5105628;28;20456;-40
2023/11/01 08:36:14;;;;;;;4.28;1.98;;;;;;;19.99;100.00;99879.44;5100511;28;20027;-40
2023/11/01 08:38:40;;;;;;;8.00;2.50;;;;;;;19.98;100.00;99875.06;5104923;28;20114;-41
2023/11/01 08:41:05;;;;;;;6.88;2.00;;;;;;;19.97;100.00;99876.16;5103276;28;20050;-41
2023/11/01 08:43:31;;;;;;;5.80;2.10;;;;;;;19.96;100.00;99877.31;5097619;28;20168;-41
2023/11/01 08:45:56;;;;;;;9.35;2.22;;;;;;;19.96;100.00;99871.00;5098581;28;20055;-41
2023/11/01 08:48:22;;;;;;;5.20;2.08;;;;;;;19.95;100.00;99872.13;5105301;28;20503;-41
2023/11/01 08:50:47;;;;;;;7.63;2.22;;;;;;;19.94;100.00;99873.22;5102760;28;20034;-40
2023/11/01 08:53:13;;;;;;;6.60;2.28;;;;;;;19.94;100.00;99868.56;5106920;28;20039;-41
2023/11/01 08:55:39;;;;;;;6.05;2.03;;;;;;;19.93;100.00;99868.88;5087345;28;20395;-41
2023/11/01 08:58:04;;;;;;;7.03;1.90;;;;;;;19.94;100.00;99863.06;5105676;28;20055;-41
2023/11/01 09:00:30;;;;;;;6.25;2.30;;;;;;;19.93;100.00;99852.38;5105834;28;20266;-41
2023/11/01 09:02:56;;;;;;;6.68;2.33;;;;;;;19.92;100.00;99862.56;5102540;28;20028;-40
2023/11/01 09:05:21;;;;;;;8.95;2.25;;;;;;;19.93;100.00;99857.88;5102270;28;20375;-40
2023/11/01 09:07:47;;;;;;;5.97;2.00;;;;;;;19.92;100.00;99856.25;5089394;28;20032;-40
2023/11/01 09:10:12;;;;;;;6.53;2.20;;;;;;;19.91;100.00;99857.38;5092928;28;20034;-40
2023/11/01 09:12:38;;;;;;;6.63;2.30;;;;;;;19.90;100.00;99862.03;5097396;28;20035;-40
2023/11/01 09:15:04;;;;;;;5.68;2.30;;;;;;;19.90;100.00;99864.00;5098639;28;20074;-40
2023/11/01 09:17:30;;;;;;;4.63;1.95;;;;;;;19.88;100.00;99856.88;5094205;28;20077;-40
2023/11/01 09:19:55;;;;;;;8.32;2.45;;;;;;;19.88;100.00;99856.06;5103276;28;20028;-40
2023/11/01 09:22:21;;;;;;;6.63;2.25;;;;;;;19.86;100.00;99855.56;5100565;28;20074;-40
2023/11/01 09:24:46;;;;;;;8.80;2.28;;;;;;;19.85;100.00;99856.69;5078775;28;20032;-40
2023/11/01 09:27:12;;;;;;;5.55;2.00;;;;;;;19.84;100.00;99855.06;5093845;28;20035;-40
2023/11/01 09:29:37;;;;;;;9.93;2.30;;;;;;;19.83;100.00;99848.75;5097897;28;20114;-40
2023/11/01 09:32:03;;;;;;;7.20;2.53;;;;;;;19.83;100.00;99839.66;5098990;28;20533;-40
2023/11/01 09:34:28;;;;;;;7.65;2.05;;;;;;;19.82;100.00;99840.78;5100286;28;20032;-40
2023/11/01 09:36:54;;;;;;;6.82;2.40;;;;;;;19.80;100.00;99840.28;5105047;28;20084;-40
2023/11/01 09:39:19;;;;;;;6.32;2.10;;;;;;;19.80;100.00;99832.84;5101813;28;20028;-40
2023/11/01 09:41:52;;;;;;;6.28;1.85;;;;;;;19.80;100.00;99829.28;5104591;28;21067;-40
2023/11/01 09:44:18;;;;;;;5.90;2.17;;;;;;;19.79;100.00;99823.00;5101459;28;20386;-40
2023/11/01 13:54:22;;;;;;;17.98;3.42;;;;;;;19.58;100.00;99483.81;5038940;28;20407;-38
2023/11/01 13:56:47;;;;;;;17.75;4.18;;;;;;;19.58;100.00;99483.81;5025990;28;20491;-40
2023/11/01 13:59:13;;;;;;;15.10;3.63;;;;;;;19.63;100.00;99491.91;5028356;28;20032;-40
2023/11/01 14:01:38;;;;;;;27.80;3.85;;;;;;;19.66;100.00;99486.59;5022901;28;20084;-46
2023/11/01 14:04:04;;;;;;;20.77;3.33;;;;;;;19.69;100.00;99485.13;5022907;28;20038;-37
2023/11/01 14:06:29;;;;;;;19.67;3.33;;;;;;;19.73;100.00;99484.19;5017818;28;20045;-38
2023/11/01 14:08:55;;;;;;;15.85;3.17;;;;;;;19.79;100.00;99475.75;5023042;28;20516;-39
2023/11/01 14:11:23;;;;;;;20.90;3.90;;;;;;;19.81;100.00;99465.28;5030910;28;20037;-38
2023/11/01 14:13:50;;;;;;;15.13;3.28;;;;;;;19.84;100.00;99459.13;5023750;28;20018;-39
2023/11/01 14:16:16;;;;;;;13.02;3.03;;;;;;;19.86;100.00;99457.72;5028577;28;20045;-40
2023/11/01 14:18:41;;;;;;;10.43;2.80;;;;;;;19.90;100.00;99446.06;5023032;28;20040;-37
2023/11/01 14:21:10;;;;;;;14.77;2.80;;;;;;;19.95;100.00;99446.72;5022385;28;20337;-36
2023/11/01 14:23:39;;;;;;;9.52;2.97;;;;;;;20.02;100.00;99443.47;5022408;28;20056;-37
2023/11/01 14:26:06;;;;;;;8.18;2.60;;;;;;;20.07;100.00;99435.03;5017349;28;20037;-36
2023/11/01 14:28:31;;;;;;;10.50;2.30;;;;;;;20.13;100.00;99428.25;5022798;28;20367;-42
2023/11/01 14:30:58;;;;;;;9.85;2.55;;;;;;;20.19;100.00;99418.69;5022195;28;20022;-43
2023/11/01 14:33:23;;;;;;;10.68;2.83;;;;;;;20.26;100.00;99431.16;5023334;28;20025;-42
2023/11/01 14:35:49;;;;;;;8.48;2.60;;;;;;;20.32;100.00;99424.34;5022029;28;20040;-42
2023/11/01 14:38:15;;;;;;;5.72;2.47;;;;;;;20.38;100.00;99427.72;5024593;28;20022;-36
2023/11/01 14:40:41;;;;;;;6.07;2.10;;;;;;;20.42;100.00;99425.94;5023256;28;20179;-38
2023/11/01 14:43:09;;;;;;;8.70;2.55;;;;;;;20.44;100.00;99430.00;5023476;28;20519;-40
2023/11/01 14:45:34;;;;;;;4.25;2.08;;;;;;;20.47;100.00;99428.53;5022111;28;20056;-40
2023/11/01 14:48:00;;;;;;;7.68;2.80;;;;;;;20.48;100.00;99425.44;5022671;28;20565;-41
2023/11/01 14:50:27;;;;;;;6.93;2.13;;;;;;;20.50;99.99;99412.16;5025525;28;20492;-43
2023/11/01 14:52:52;;;;;;;13.27;2.80;;;;;;;20.49;99.62;99421.56;5025089;28;20479;-47
2023/11/01 14:55:18;;;;;;;6.55;2.90;;;;;;;20.52;99.72;99415.38;5026551;28;20056;-48
2023/11/01 14:57:43;;;;;;;6.28;1.90;;;;;;;20.54;99.60;99420.56;5022114;28;20437;-47
2023/11/01 15:00:10;;;;;;;4.15;2.00;;;;;;;20.55;99.33;99424.13;5025703;28;20064;-48
2023/11/01 15:02:36;;;;;;;7.40;2.22;;;;;;;20.55;99.67;99407.59;5052984;28;20026;-50
2023/11/01 15:05:03;;;;;;;5.68;2.30;;;;;;;20.56;99.19;99411.97;5011566;28;20026;-43
2023/11/01 15:07:29;;;;;;;5.63;2.10;;;;;;;20.56;99.08;99409.22;5013038;28;20382;-44
2023/11/01 15:09:54;;;;;;;12.10;2.13;;;;;;;20.56;99.81;99407.28;5009946;28;20030;-44
2023/11/01 15:12:22;;;;;;;8.90;2.10;;;;;;;20.57;99.23;99405.34;5005304;28;20034;-44
2023/11/01 15:14:48;;;;;;;4.20;1.92;;;;;;;20.55;98.96;99408.44;5018455;28;20025;-43
2023/11/01 15:17:13;;;;;;;5.20;2.03;;;;;;;20.54;99.28;99401.31;5015254;28;20038;-43
2023/11/01 15:19:39;;;;;;;5.50;2.00;;;;;;;20.50;99.18;99414.91;5022804;28;20029;-43
2023/11/01 15:22:04;;;;;;;34.15;3.20;;;;;;;20.49;99.50;99413.28;5013961;28;20405;-39
2023/11/01 15:24:30;;;;;;;13.27;2.30;;;;;;;20.48;99.35;99397.13;5008997;28;20038;-38